createdAt,value
2022-11-19T00:00:43.869Z,7.00
2022-11-19T00:04:08.143Z,7.00
2022-11-19T00:07:29.815Z,7.00
2022-11-19T00:10:51.474Z,6.90
2022-11-19T00:14:14.264Z,6.90
2022-11-19T00:17:35.849Z,6.90
2022-11-19T00:21:03.179Z,6.80
2022-11-19T00:24:26.908Z,6.80
2022-11-19T00:27:48.501Z,6.80
2022-11-19T00:31:11.431Z,6.80
2022-11-19T00:34:33.019Z,6.80
2022-11-19T00:37:56.242Z,6.80
2022-11-19T00:41:17.823Z,6.80
2022-11-19T00:44:39.399Z,6.80
2022-11-19T00:48:00.978Z,6.80
2022-11-19T00:51:23.048Z,6.70
2022-11-19T00:54:45.979Z,6.70
2022-11-19T00:58:09.315Z,6.80
2022-11-19T01:01:30.990Z,6.80
2022-11-19T01:04:52.651Z,6.80
2022-11-19T01:08:14.247Z,6.80
2022-11-19T01:11:37.895Z,6.80
2022-11-19T01:14:59.501Z,6.90
2022-11-19T01:18:21.110Z,6.90
2022-11-19T01:21:42.713Z,6.90
2022-11-19T01:25:04.709Z,6.90
2022-11-19T01:28:28.004Z,6.90
2022-11-19T01:31:49.597Z,6.90
2022-11-19T01:35:11.177Z,6.90
2022-11-19T01:38:33.059Z,6.90
2022-11-19T01:41:54.632Z,6.90
2022-11-19T01:45:24.648Z,6.80
2022-11-19T01:48:48.420Z,6.80
2022-11-19T01:52:10.203Z,6.80
2022-11-19T01:55:31.804Z,6.80
2022-11-19T01:58:55.233Z,6.80
2022-11-19T02:02:19.215Z,6.80
2022-11-19T02:05:41.647Z,6.80
2022-11-19T02:09:03.263Z,6.80
2022-11-19T02:12:30.638Z,6.80
2022-11-19T02:15:53.919Z,6.80
2022-11-19T02:19:25.984Z,6.80
2022-11-19T02:23:01.642Z,6.80
2022-11-19T02:26:41.237Z,6.80
2022-11-19T02:30:13.664Z,6.80
2022-11-19T02:33:39.595Z,6.70
2022-11-19T02:37:04.210Z,6.70
2022-11-19T02:40:28.589Z,6.70
2022-11-19T02:43:52.168Z,6.70
2022-11-19T02:47:17.214Z,6.70
2022-11-19T02:50:42.051Z,6.80
2022-11-19T02:54:04.558Z,6.80
2022-11-19T02:57:26.181Z,6.70
2022-11-19T03:00:49.577Z,6.80
2022-11-19T03:04:12.622Z,6.80
2022-11-19T03:07:34.265Z,6.80
2022-11-19T03:11:02.656Z,6.80
2022-11-19T03:14:25.966Z,6.80
2022-11-19T03:17:58.393Z,6.80
2022-11-19T03:21:24.417Z,6.80
2022-11-19T03:24:49.597Z,6.80
2022-11-19T03:28:13.117Z,6.80
2022-11-19T03:31:35.395Z,6.80
2022-11-19T03:34:59.539Z,6.80
2022-11-19T03:38:24.405Z,6.80
2022-11-19T03:41:46.715Z,6.80
2022-11-19T03:45:10.675Z,6.80
2022-11-19T03:48:32.831Z,6.80
2022-11-19T03:51:56.198Z,6.80
2022-11-19T03:55:20.076Z,6.80
2022-11-19T03:58:42.915Z,6.80
2022-11-19T04:02:06.779Z,6.80
2022-11-19T04:05:28.413Z,6.80
2022-11-19T04:08:49.990Z,6.70
2022-11-19T04:12:15.120Z,6.70
2022-11-19T04:15:36.692Z,6.70
2022-11-19T04:18:58.258Z,6.80
2022-11-19T04:22:19.841Z,6.80
2022-11-19T04:25:45.113Z,6.90
2022-11-19T04:29:08.058Z,6.90
2022-11-19T04:32:29.641Z,6.90
2022-11-19T04:35:51.212Z,6.90
2022-11-19T04:39:12.799Z,6.80
2022-11-19T04:42:34.388Z,6.80
2022-11-19T04:45:57.308Z,6.70
2022-11-19T04:49:19.026Z,6.70
2022-11-19T04:52:41.527Z,6.70
2022-11-19T04:56:03.370Z,6.70
2022-11-19T04:59:24.959Z,6.70
2022-11-19T05:02:47.883Z,6.80
2022-11-19T05:06:09.447Z,6.70
2022-11-19T05:09:31.012Z,6.70
2022-11-19T05:12:52.606Z,6.60
2022-11-19T05:16:14.287Z,6.60
2022-11-19T05:19:37.194Z,6.50
2022-11-19T05:22:58.764Z,6.50
2022-11-19T05:26:20.352Z,6.50
2022-11-19T05:29:41.925Z,6.60
2022-11-19T05:33:03.553Z,6.60
2022-11-19T05:36:26.485Z,6.60
2022-11-19T05:39:48.057Z,6.60
2022-11-19T05:43:09.645Z,6.50
2022-11-19T05:46:31.275Z,6.50
2022-11-19T05:49:52.848Z,6.50
2022-11-19T05:53:15.784Z,6.50
2022-11-19T05:56:37.368Z,6.50
2022-11-19T05:59:58.945Z,6.50
2022-11-19T06:03:20.522Z,6.60
2022-11-19T06:06:42.136Z,6.60
2022-11-19T06:10:05.438Z,6.60
2022-11-19T06:13:27.012Z,6.70
2022-11-19T06:16:48.608Z,6.70
2022-11-19T06:20:10.471Z,6.70
2022-11-19T06:23:32.064Z,6.70
2022-11-19T06:26:55.002Z,6.70
2022-11-19T06:30:16.701Z,6.70
2022-11-19T06:33:38.317Z,6.70
2022-11-19T06:36:59.891Z,6.70
2022-11-19T06:40:21.552Z,6.70
2022-11-19T06:43:44.508Z,6.70
2022-11-19T06:47:06.079Z,6.70
2022-11-19T06:50:27.656Z,6.70
2022-11-19T06:53:49.245Z,6.70
2022-11-19T06:57:10.887Z,6.70
2022-11-19T07:00:34.088Z,6.60
2022-11-19T07:03:55.670Z,6.60
2022-11-19T07:07:17.434Z,6.70
2022-11-19T07:10:39.079Z,6.70
2022-11-19T07:14:00.666Z,6.70
2022-11-19T07:17:23.591Z,6.60
2022-11-19T07:20:45.492Z,6.60
2022-11-19T07:24:08.427Z,6.60
2022-11-19T07:27:30.023Z,6.60
2022-11-19T07:30:51.636Z,6.70
2022-11-19T07:34:14.575Z,6.70
2022-11-19T07:37:36.172Z,6.80
2022-11-19T07:40:57.777Z,6.70
2022-11-19T07:44:19.531Z,6.70
2022-11-19T07:47:41.109Z,6.80
2022-11-19T07:51:04.062Z,6.80
2022-11-19T07:54:25.855Z,6.90
2022-11-19T07:57:47.437Z,7.00
2022-11-19T08:01:09.109Z,7.10
2022-11-19T08:04:30.832Z,7.30
2022-11-19T08:07:53.770Z,7.60
2022-11-19T08:11:15.869Z,7.80
2022-11-19T08:14:37.440Z,8.10
2022-11-19T08:17:59.028Z,8.30
2022-11-19T08:21:20.601Z,8.40
2022-11-19T08:24:44.116Z,8.30
2022-11-19T08:28:05.728Z,8.30
2022-11-19T08:31:27.461Z,8.40
2022-11-19T08:34:49.212Z,8.50
2022-11-19T08:38:10.810Z,8.70
2022-11-19T08:41:34.009Z,8.90
2022-11-19T08:44:55.590Z,9.00
2022-11-19T08:48:17.161Z,8.90
2022-11-19T08:51:38.918Z,8.70
2022-11-19T08:55:00.499Z,8.60
2022-11-19T08:58:23.443Z,8.60
2022-11-19T09:01:45.024Z,8.30
2022-11-19T09:05:10.660Z,8.20
2022-11-19T09:08:35.202Z,8.10
2022-11-19T09:11:56.783Z,8.10
2022-11-19T09:15:19.727Z,8.10
2022-11-19T09:18:41.326Z,8.10
2022-11-19T09:22:02.917Z,8.20
2022-11-19T09:25:24.501Z,8.30
2022-11-19T09:28:46.246Z,8.40
2022-11-19T09:32:09.717Z,8.70
2022-11-19T09:35:31.301Z,8.90
2022-11-19T09:38:56.081Z,9.20
2022-11-19T09:42:22.209Z,9.60
2022-11-19T09:45:48.667Z,9.80
2022-11-19T09:49:15.256Z,9.80
2022-11-19T09:52:40.680Z,9.70
2022-11-19T09:56:02.503Z,9.60
2022-11-19T09:59:25.834Z,9.60
2022-11-19T10:02:47.526Z,9.60
2022-11-19T10:06:21.459Z,9.60
2022-11-19T10:09:49.112Z,9.80
2022-11-19T10:13:18.226Z,9.90
2022-11-19T10:16:43.885Z,9.70
2022-11-19T10:20:13.646Z,9.40
2022-11-19T10:23:44.870Z,9.50
2022-11-19T10:27:09.971Z,9.60
2022-11-19T10:30:31.602Z,9.60
2022-11-19T10:33:55.527Z,9.40
2022-11-19T10:37:18.651Z,9.40
2022-11-19T10:40:43.247Z,9.40
2022-11-19T10:44:15.730Z,9.30
2022-11-19T10:47:40.601Z,9.30
2022-11-19T10:51:02.557Z,9.20
2022-11-19T10:54:25.383Z,9.10
2022-11-19T10:57:49.263Z,9.10
2022-11-19T11:01:14.272Z,9.20
2022-11-19T11:04:55.933Z,9.50
2022-11-19T11:08:17.516Z,9.70
2022-11-19T11:11:39.198Z,9.70
2022-11-19T11:15:12.866Z,9.80
2022-11-19T11:18:35.335Z,9.80
2022-11-19T11:21:57.300Z,9.80
2022-11-19T11:25:20.314Z,9.90
2022-11-19T11:28:53.313Z,9.80
2022-11-19T11:32:29.364Z,9.90
2022-11-19T11:35:51.747Z,10.00
2022-11-19T11:39:24.241Z,9.90
2022-11-19T11:42:45.991Z,9.80
2022-11-19T11:46:09.394Z,9.60
2022-11-19T11:49:33.537Z,9.40
2022-11-19T11:52:56.019Z,9.20
2022-11-19T11:56:20.837Z,9.10
2022-11-19T11:59:42.419Z,9.10
2022-11-19T12:03:04.611Z,9.40
2022-11-19T12:06:32.779Z,9.40
2022-11-19T12:09:57.950Z,9.50
2022-11-19T12:13:30.738Z,9.60
2022-11-19T12:17:13.003Z,9.50
2022-11-19T12:20:38.085Z,9.40
2022-11-19T12:24:06.684Z,9.40
2022-11-19T12:27:32.190Z,9.30
2022-11-19T12:30:59.863Z,9.30
2022-11-19T12:34:35.481Z,9.30
2022-11-19T12:38:11.393Z,9.20
2022-11-19T12:41:40.359Z,9.10
2022-11-19T12:45:06.191Z,9.10
2022-11-19T12:48:33.699Z,9.10
2022-11-19T12:52:00.669Z,9.10
2022-11-19T12:55:25.088Z,9.10
2022-11-19T12:58:55.150Z,9.10
2022-11-19T13:02:19.644Z,9.10
2022-11-19T13:05:45.543Z,9.00
2022-11-19T13:09:09.299Z,8.90
2022-11-19T13:12:33.954Z,8.90
2022-11-19T13:16:00.198Z,8.90
2022-11-19T13:19:23.879Z,8.90
2022-11-19T13:22:47.063Z,8.90
2022-11-19T13:26:10.506Z,8.90
2022-11-19T13:29:35.765Z,8.80
2022-11-19T13:33:02.088Z,8.90
2022-11-19T13:36:25.345Z,8.80
2022-11-19T13:39:47.966Z,8.80
2022-11-19T13:43:31.944Z,8.80
2022-11-19T13:46:56.941Z,8.70
2022-11-19T13:50:21.345Z,8.70
2022-11-19T13:53:44.899Z,8.80
2022-11-19T13:57:07.331Z,8.80
2022-11-19T14:00:29.052Z,8.80
2022-11-19T14:03:58.168Z,8.80
2022-11-19T14:07:33.300Z,8.90
2022-11-19T14:11:01.579Z,8.90
2022-11-19T14:14:29.882Z,9.00
2022-11-19T14:17:53.164Z,9.00
2022-11-19T14:21:33.652Z,9.10
2022-11-19T14:24:59.537Z,9.20
2022-11-19T14:28:40.274Z,9.10
2022-11-19T14:32:18.595Z,9.10
2022-11-19T14:35:40.364Z,9.00
2022-11-19T14:39:02.920Z,9.00
2022-11-19T14:42:25.912Z,8.80
2022-11-19T14:46:02.384Z,8.80
2022-11-19T14:49:31.610Z,8.80
2022-11-19T14:52:54.576Z,8.80
2022-11-19T14:56:19.341Z,8.80
2022-11-19T14:59:45.890Z,8.80
2022-11-19T15:03:11.997Z,8.80
2022-11-19T15:06:34.163Z,8.70
2022-11-19T15:10:23.679Z,8.60
2022-11-19T15:13:45.889Z,8.60
2022-11-19T15:17:10.031Z,8.50
2022-11-19T15:20:34.964Z,8.40
2022-11-19T15:24:00.495Z,8.30
2022-11-19T15:27:27.752Z,8.20
2022-11-19T15:30:57.961Z,8.20
2022-11-19T15:34:26.095Z,8.20
2022-11-19T15:37:51.050Z,8.30
2022-11-19T15:41:14.015Z,8.20
2022-11-19T15:44:38.916Z,8.10
2022-11-19T15:48:07.424Z,8.00
2022-11-19T15:51:32.111Z,7.80
2022-11-19T15:55:09.405Z,7.70
2022-11-19T15:58:35.288Z,7.60
2022-11-19T16:01:58.240Z,7.50
2022-11-19T16:05:21.435Z,7.50
2022-11-19T16:08:45.484Z,7.50
2022-11-19T16:12:07.130Z,7.40
2022-11-19T16:15:28.717Z,7.30
2022-11-19T16:18:50.876Z,7.30
2022-11-19T16:22:12.623Z,7.20
2022-11-19T16:25:36.498Z,7.20
2022-11-19T16:29:00.878Z,7.20
2022-11-19T16:32:24.088Z,7.30
2022-11-19T16:35:51.229Z,7.30
2022-11-19T16:39:14.937Z,7.40
2022-11-19T16:42:37.867Z,7.40
2022-11-19T16:46:00.351Z,7.50
2022-11-19T16:49:31.902Z,7.50
2022-11-19T16:52:54.009Z,7.50
2022-11-19T16:56:17.075Z,7.50
2022-11-19T16:59:40.265Z,7.60
2022-11-19T17:03:19.185Z,7.60
2022-11-19T17:06:42.477Z,7.60
2022-11-19T17:10:08.416Z,7.70
2022-11-19T17:13:30.736Z,7.70
2022-11-19T17:16:53.783Z,7.70
2022-11-19T17:20:33.351Z,7.70
2022-11-19T17:23:55.276Z,7.70
2022-11-19T17:27:24.459Z,7.70
2022-11-19T17:30:46.460Z,7.70
2022-11-19T17:34:10.604Z,7.70
2022-11-19T17:37:32.266Z,7.70
2022-11-19T17:40:54.952Z,7.70
2022-11-19T17:44:19.411Z,7.80
2022-11-19T17:47:41.180Z,7.80
2022-11-19T17:51:04.308Z,7.80
2022-11-19T17:54:26.233Z,7.80
2022-11-19T17:57:47.905Z,7.70
2022-11-19T18:01:09.811Z,7.80
2022-11-19T18:04:31.558Z,7.70
2022-11-19T18:07:55.087Z,7.70
2022-11-19T18:11:18.367Z,7.70
2022-11-19T18:14:40.022Z,7.70
2022-11-19T18:18:01.645Z,7.70
2022-11-19T18:21:23.411Z,7.70
2022-11-19T18:24:47.634Z,7.70
2022-11-19T18:28:09.542Z,7.70
2022-11-19T18:31:31.131Z,7.70
2022-11-19T18:34:52.988Z,7.60
2022-11-19T18:38:14.582Z,7.70
2022-11-19T18:41:37.799Z,7.60
2022-11-19T18:44:59.448Z,7.60
2022-11-19T18:48:21.020Z,7.50
2022-11-19T18:51:42.622Z,7.40
2022-11-19T18:55:04.587Z,7.30
2022-11-19T18:58:27.500Z,7.20
2022-11-19T19:01:49.516Z,7.10
2022-11-19T19:05:11.148Z,7.00
2022-11-19T19:08:33.193Z,7.00
2022-11-19T19:11:54.816Z,7.00
2022-11-19T19:15:17.896Z,6.90
2022-11-19T19:18:39.733Z,6.90
2022-11-19T19:22:01.349Z,6.80
2022-11-19T19:25:22.943Z,6.80
2022-11-19T19:28:47.740Z,6.70
2022-11-19T19:32:10.662Z,6.70
2022-11-19T19:35:32.247Z,6.70
2022-11-19T19:38:53.853Z,6.70
2022-11-19T19:42:15.488Z,6.60
2022-11-19T19:45:37.103Z,6.60
2022-11-19T19:49:00.046Z,6.60
2022-11-19T19:52:21.636Z,6.60
2022-11-19T19:55:43.211Z,6.60
2022-11-19T19:59:04.796Z,6.60
2022-11-19T20:02:26.396Z,6.60
2022-11-19T20:05:50.047Z,6.60
2022-11-19T20:09:11.789Z,6.50
2022-11-19T20:12:33.377Z,6.50
2022-11-19T20:15:55.380Z,6.60
2022-11-19T20:19:16.953Z,6.60
2022-11-19T20:22:39.923Z,6.50
2022-11-19T20:26:02.215Z,6.50
2022-11-19T20:29:24.049Z,6.50
2022-11-19T20:32:45.749Z,6.50
2022-11-19T20:36:08.333Z,6.50
2022-11-19T20:39:31.357Z,6.50
2022-11-19T20:42:52.957Z,6.50
2022-11-19T20:46:15.373Z,6.50
2022-11-19T20:49:37.464Z,6.50
2022-11-19T20:52:59.054Z,6.40
2022-11-19T20:56:22.004Z,6.40
2022-11-19T20:59:43.577Z,6.40
2022-11-19T21:03:05.154Z,6.40
2022-11-19T21:06:26.774Z,6.50
2022-11-19T21:09:48.352Z,6.40
2022-11-19T21:13:11.319Z,6.40
2022-11-19T21:16:32.914Z,6.50
2022-11-19T21:19:54.582Z,6.40
2022-11-19T21:23:16.608Z,6.40
2022-11-19T21:26:38.234Z,6.50
2022-11-19T21:30:01.210Z,6.40
2022-11-19T21:33:22.811Z,6.50
2022-11-19T21:36:45.305Z,6.50
2022-11-19T21:40:07.489Z,6.40
2022-11-19T21:43:29.344Z,6.40
2022-11-19T21:46:52.284Z,6.40
2022-11-19T21:50:14.960Z,6.30
2022-11-19T21:53:36.571Z,6.30
2022-11-19T21:56:58.157Z,6.30
2022-11-19T22:00:19.853Z,6.20
2022-11-19T22:03:42.790Z,6.20
2022-11-19T22:07:04.813Z,6.20
2022-11-19T22:10:26.722Z,6.20
2022-11-19T22:13:48.288Z,6.20
2022-11-19T22:17:09.923Z,6.30
2022-11-19T22:20:32.844Z,6.40
2022-11-19T22:23:54.533Z,6.40
2022-11-19T22:27:16.128Z,6.50
2022-11-19T22:30:37.710Z,6.40
2022-11-19T22:33:59.295Z,6.50
2022-11-19T22:37:22.210Z,6.50
2022-11-19T22:40:43.994Z,6.40
2022-11-19T22:44:05.698Z,6.40
2022-11-19T22:47:27.312Z,6.40
2022-11-19T22:50:48.879Z,6.40
2022-11-19T22:54:11.808Z,6.40
2022-11-19T22:57:33.387Z,6.30
2022-11-19T23:00:55.006Z,6.30
2022-11-19T23:04:16.617Z,6.30
2022-11-19T23:07:38.218Z,6.20
2022-11-19T23:11:02.220Z,6.20
2022-11-19T23:14:23.819Z,6.20
2022-11-19T23:17:45.387Z,6.10
2022-11-19T23:21:07.736Z,6.10
2022-11-19T23:24:29.318Z,6.10
2022-11-19T23:27:52.252Z,6.10
2022-11-19T23:31:15.000Z,6.00
2022-11-19T23:34:36.572Z,6.00
2022-11-19T23:37:58.157Z,6.00
2022-11-19T23:41:20.467Z,6.00
2022-11-19T23:44:43.741Z,5.90
2022-11-19T23:48:05.503Z,5.90
2022-11-19T23:51:28.020Z,5.90
2022-11-19T23:54:49.601Z,5.90
2022-11-19T23:58:11.183Z,5.80
